Current Weather

Odiham

Odiham, United Kingdom (EGVO)

Report from: Monday, September 26, 2022 3:20 AM BST
Current time: Monday, September 26, 2022 4:04 AM BST

Nearby weather
Weather history
Weather forecast

Present weatherRain
Temperature11.0°C (51.8°F)
Dew point9.0°C (48.2°F)
Winds 13 kts (6.7 m/s, 15 mph) Southwest (220°)
Visibility6.2 mi. (10 km)
Clouds Few clouds 2,200 ft. (671 m)
Scattered clouds 4,600 ft. (1,402 m)
Ceiling: Overcast 6,000 ft. (1,829 m)
Altimeter29.71 in.Hg (1006 mB)
Relative humidity87 %
Density altitude-67 ft. (-21 m)
Remarks Fully automated report
Flight conditions Visual Meteorological Conditions
Raw dataEGVO 260220Z AUTO 22013KT 9999 RA FEW022/// SCT046/// OVC060/// 11/09 Q1006
An error has occurred. This application may no longer respond until reloaded. Reload 🗙